sensor_id;sensor_type;location;lat;lon;timestamp;pressure;altitude;pressure_sealevel;temperature;humidity
74403;BME280;62837;51.082;13.744;2022-08-19T00:01:11;99479.37;;;24.57;61.13
74403;BME280;62837;51.082;13.744;2022-08-19T00:03:55;99488.71;;;24.54;61.14
74403;BME280;62837;51.082;13.744;2022-08-19T00:06:26;99486.17;;;24.51;61.27
74403;BME280;62837;51.082;13.744;2022-08-19T00:08:59;99486.41;;;24.51;61.26
74403;BME280;62837;51.082;13.744;2022-08-19T00:11:30;99490.83;;;24.51;61.29
74403;BME280;62837;51.082;13.744;2022-08-19T00:14:01;99491.23;;;24.50;61.32
74403;BME280;62837;51.082;13.744;2022-08-19T00:16:32;99487.98;;;24.54;61.25
74403;BME280;62837;51.082;13.744;2022-08-19T00:19:04;99482.47;;;24.55;61.01
74403;BME280;62837;51.082;13.744;2022-08-19T00:21:35;99477.83;;;24.51;61.28
74403;BME280;62837;51.082;13.744;2022-08-19T00:24:08;99488.34;;;24.51;61.14
74403;BME280;62837;51.082;13.744;2022-08-19T00:26:40;99500.30;;;24.47;61.62
74403;BME280;62837;51.082;13.744;2022-08-19T00:29:14;99511.19;;;24.44;61.60
74403;BME280;62837;51.082;13.744;2022-08-19T00:31:45;99514.56;;;24.45;61.52
74403;BME280;62837;51.082;13.744;2022-08-19T00:34:19;99517.50;;;24.48;61.37
74403;BME280;62837;51.082;13.744;2022-08-19T00:36:49;99520.14;;;24.47;61.63
74403;BME280;62837;51.082;13.744;2022-08-19T00:39:20;99518.00;;;24.44;61.58
74403;BME280;62837;51.082;13.744;2022-08-19T00:41:51;99528.29;;;24.44;61.61
74403;BME280;62837;51.082;13.744;2022-08-19T00:44:24;99527.34;;;24.45;61.73
74403;BME280;62837;51.082;13.744;2022-08-19T00:46:57;99527.27;;;24.46;61.90
74403;BME280;62837;51.082;13.744;2022-08-19T00:49:33;99528.77;;;24.44;61.96
74403;BME280;62837;51.082;13.744;2022-08-19T00:52:08;99523.55;;;24.40;61.98
74403;BME280;62837;51.082;13.744;2022-08-19T00:54:40;99512.71;;;24.40;62.28
74403;BME280;62837;51.082;13.744;2022-08-19T00:57:10;99508.48;;;24.37;62.17
74403;BME280;62837;51.082;13.744;2022-08-19T00:59:45;99511.33;;;24.31;62.45
74403;BME280;62837;51.082;13.744;2022-08-19T01:02:32;99518.71;;;24.27;62.59
74403;BME280;62837;51.082;13.744;2022-08-19T01:05:02;99516.73;;;24.24;62.74
74403;BME280;62837;51.082;13.744;2022-08-19T01:07:35;99511.31;;;24.22;62.87
74403;BME280;62837;51.082;13.744;2022-08-19T01:10:10;99497.92;;;24.19;63.13
74403;BME280;62837;51.082;13.744;2022-08-19T01:12:41;99498.88;;;24.15;63.27
74403;BME280;62837;51.082;13.744;2022-08-19T01:15:16;99504.20;;;24.13;63.28
74403;BME280;62837;51.082;13.744;2022-08-19T01:17:48;99514.55;;;24.16;63.19
74403;BME280;62837;51.082;13.744;2022-08-19T01:20:21;99514.79;;;24.19;63.37
74403;BME280;62837;51.082;13.744;2022-08-19T01:22:55;99518.09;;;24.19;63.35
74403;BME280;62837;51.082;13.744;2022-08-19T01:25:29;99519.95;;;24.21;63.22
74403;BME280;62837;51.082;13.744;2022-08-19T01:28:02;99526.20;;;24.23;63.50
74403;BME280;62837;51.082;13.744;2022-08-19T01:30:39;99533.61;;;24.25;63.29
74403;BME280;62837;51.082;13.744;2022-08-19T01:33:19;99538.09;;;24.28;63.27
74403;BME280;62837;51.082;13.744;2022-08-19T01:35:50;99532.63;;;24.28;63.12
74403;BME280;62837;51.082;13.744;2022-08-19T01:38:24;99535.25;;;24.31;63.14
74403;BME280;62837;51.082;13.744;2022-08-19T01:40:55;99533.47;;;24.30;63.10
74403;BME280;62837;51.082;13.744;2022-08-19T01:43:26;99533.73;;;24.31;63.10
74403;BME280;62837;51.082;13.744;2022-08-19T01:45:57;99529.94;;;24.30;63.02
74403;BME280;62837;51.082;13.744;2022-08-19T01:48:28;99520.06;;;24.29;63.30
74403;BME280;62837;51.082;13.744;2022-08-19T01:51:02;99519.40;;;24.29;63.11
74403;BME280;62837;51.082;13.744;2022-08-19T01:53:34;99517.92;;;24.27;63.17
74403;BME280;62837;51.082;13.744;2022-08-19T01:56:06;99526.21;;;24.24;63.31
74403;BME280;62837;51.082;13.744;2022-08-19T01:58:40;99531.27;;;24.24;63.17
74403;BME280;62837;51.082;13.744;2022-08-19T02:01:12;99535.46;;;24.25;63.33
74403;BME280;62837;51.082;13.744;2022-08-19T02:03:43;99541.39;;;24.29;63.36
74403;BME280;62837;51.082;13.744;2022-08-19T02:06:15;99538.84;;;24.29;63.42
74403;BME280;62837;51.082;13.744;2022-08-19T02:08:46;99537.11;;;24.32;63.32
74403;BME280;62837;51.082;13.744;2022-08-19T02:11:24;99526.08;;;24.33;63.20
74403;BME280;62837;51.082;13.744;2022-08-19T02:13:57;99515.98;;;24.35;63.16
74403;BME280;62837;51.082;13.744;2022-08-19T02:16:28;99495.86;;;24.37;62.96
74403;BME280;62837;51.082;13.744;2022-08-19T02:19:00;99476.36;;;24.37;63.27
74403;BME280;62837;51.082;13.744;2022-08-19T02:21:31;99483.15;;;24.31;63.12
74403;BME280;62837;51.082;13.744;2022-08-19T02:24:03;99500.41;;;24.27;63.43
74403;BME280;62837;51.082;13.744;2022-08-19T02:26:35;99515.70;;;24.24;63.64
74403;BME280;62837;51.082;13.744;2022-08-19T02:29:06;99527.31;;;24.23;63.44
74403;BME280;62837;51.082;13.744;2022-08-19T02:31:37;99534.30;;;24.28;63.44
74403;BME280;62837;51.082;13.744;2022-08-19T02:34:07;99535.05;;;24.32;63.47
74403;BME280;62837;51.082;13.744;2022-08-19T02:36:38;99531.14;;;24.38;63.33
74403;BME280;62837;51.082;13.744;2022-08-19T02:39:11;99534.83;;;24.42;63.36
74403;BME280;62837;51.082;13.744;2022-08-19T02:41:42;99529.61;;;24.42;63.14
74403;BME280;62837;51.082;13.744;2022-08-19T02:44:12;99519.77;;;24.44;63.24
74403;BME280;62837;51.082;13.744;2022-08-19T02:47:20;99511.41;;;24.43;63.33
74403;BME280;62837;51.082;13.744;2022-08-19T02:49:51;99518.42;;;24.44;63.31
74403;BME280;62837;51.082;13.744;2022-08-19T02:52:22;99515.21;;;24.44;63.23
74403;BME280;62837;51.082;13.744;2022-08-19T02:54:54;99516.64;;;24.44;63.31
74403;BME280;62837;51.082;13.744;2022-08-19T02:57:27;99520.88;;;24.43;63.28
74403;BME280;62837;51.082;13.744;2022-08-19T02:59:58;99526.52;;;24.44;63.24
74403;BME280;62837;51.082;13.744;2022-08-19T03:02:30;99535.05;;;24.45;63.22
74403;BME280;62837;51.082;13.744;2022-08-19T03:05:01;99534.80;;;24.44;63.10
74403;BME280;62837;51.082;13.744;2022-08-19T03:07:32;99536.58;;;24.45;63.07
74403;BME280;62837;51.082;13.744;2022-08-19T03:10:04;99537.29;;;24.44;63.27
74403;BME280;62837;51.082;13.744;2022-08-19T03:12:38;99536.50;;;24.41;63.26
74403;BME280;62837;51.082;13.744;2022-08-19T03:15:10;99534.70;;;24.35;63.41
74403;BME280;62837;51.082;13.744;2022-08-19T03:17:41;99529.88;;;24.31;63.63
74403;BME280;62837;51.082;13.744;2022-08-19T03:20:12;99519.84;;;24.27;63.86
74403;BME280;62837;51.082;13.744;2022-08-19T03:22:43;99512.48;;;24.24;63.78
74403;BME280;62837;51.082;13.744;2022-08-19T03:25:14;99516.29;;;24.26;64.12
74403;BME280;62837;51.082;13.744;2022-08-19T03:27:45;99525.39;;;24.28;63.79
74403;BME280;62837;51.082;13.744;2022-08-19T03:30:18;99526.24;;;24.29;63.83
74403;BME280;62837;51.082;13.744;2022-08-19T03:32:52;99532.68;;;24.30;63.58
74403;BME280;62837;51.082;13.744;2022-08-19T03:35:25;99540.55;;;24.31;63.96
74403;BME280;62837;51.082;13.744;2022-08-19T03:37:56;99542.95;;;24.30;63.70
74403;BME280;62837;51.082;13.744;2022-08-19T03:40:28;99542.35;;;24.29;63.93
74403;BME280;62837;51.082;13.744;2022-08-19T03:43:00;99545.21;;;24.28;63.69
74403;BME280;62837;51.082;13.744;2022-08-19T03:45:31;99542.64;;;24.27;63.80
74403;BME280;62837;51.082;13.744;2022-08-19T03:48:02;99546.10;;;24.32;63.66
74403;BME280;62837;51.082;13.744;2022-08-19T03:50:33;99547.33;;;24.33;63.86
74403;BME280;62837;51.082;13.744;2022-08-19T03:53:08;99547.44;;;24.34;63.55
74403;BME280;62837;51.082;13.744;2022-08-19T03:55:42;99547.11;;;24.34;63.62
74403;BME280;62837;51.082;13.744;2022-08-19T03:58:13;99549.63;;;24.27;63.60
74403;BME280;62837;51.082;13.744;2022-08-19T04:00:44;99556.98;;;24.26;63.76
74403;BME280;62837;51.082;13.744;2022-08-19T04:03:15;99557.40;;;24.26;63.62
74403;BME280;62837;51.082;13.744;2022-08-19T04:05:48;99557.58;;;24.24;63.75
74403;BME280;62837;51.082;13.744;2022-08-19T04:08:19;99552.83;;;24.23;63.85
74403;BME280;62837;51.082;13.744;2022-08-19T04:10:51;99552.25;;;24.26;63.59
74403;BME280;62837;51.082;13.744;2022-08-19T04:13:22;99558.44;;;24.30;63.79
74403;BME280;62837;51.082;13.744;2022-08-19T04:15:54;99549.50;;;24.28;63.85
74403;BME280;62837;51.082;13.744;2022-08-19T04:18:25;99547.03;;;24.26;63.67
74403;BME280;62837;51.082;13.744;2022-08-19T04:21:05;99548.81;;;24.27;63.74
74403;BME280;62837;51.082;13.744;2022-08-19T04:23:36;99546.73;;;24.27;63.76
74403;BME280;62837;51.082;13.744;2022-08-19T04:26:15;99540.30;;;24.26;63.83
74403;BME280;62837;51.082;13.744;2022-08-19T04:28:47;99541.35;;;24.28;63.78
74403;BME280;62837;51.082;13.744;2022-08-19T04:31:23;99538.77;;;24.26;63.81
74403;BME280;62837;51.082;13.744;2022-08-19T04:33:56;99544.85;;;24.25;63.67
74403;BME280;62837;51.082;13.744;2022-08-19T04:36:29;99550.58;;;24.27;63.75
74403;BME280;62837;51.082;13.744;2022-08-19T04:39:03;99553.75;;;24.29;63.59
74403;BME280;62837;51.082;13.744;2022-08-19T04:41:35;99546.70;;;24.29;63.70
74403;BME280;62837;51.082;13.744;2022-08-19T04:44:24;99544.10;;;24.27;63.75
74403;BME280;62837;51.082;13.744;2022-08-19T04:46:55;99546.14;;;24.25;63.71
74403;BME280;62837;51.082;13.744;2022-08-19T04:49:26;99554.20;;;24.27;63.82
74403;BME280;62837;51.082;13.744;2022-08-19T04:51:57;99559.65;;;24.31;63.70
74403;BME280;62837;51.082;13.744;2022-08-19T04:54:28;99560.87;;;24.35;63.63
74403;BME280;62837;51.082;13.744;2022-08-19T04:57:09;99563.05;;;24.36;63.56
74403;BME280;62837;51.082;13.744;2022-08-19T04:59:41;99557.98;;;24.36;63.44
74403;BME280;62837;51.082;13.744;2022-08-19T05:02:12;99553.79;;;24.34;63.57
74403;BME280;62837;51.082;13.744;2022-08-19T05:04:43;99550.27;;;24.35;63.34
74403;BME280;62837;51.082;13.744;2022-08-19T05:07:14;99552.27;;;24.34;63.67
74403;BME280;62837;51.082;13.744;2022-08-19T05:09:45;99549.05;;;24.34;63.57
74403;BME280;62837;51.082;13.744;2022-08-19T05:12:27;99552.30;;;24.37;63.37
74403;BME280;62837;51.082;13.744;2022-08-19T05:14:59;99555.89;;;24.39;63.42
74403;BME280;62837;51.082;13.744;2022-08-19T05:17:30;99558.47;;;24.39;63.37
74403;BME280;62837;51.082;13.744;2022-08-19T05:20:09;99566.29;;;24.37;63.31
74403;BME280;62837;51.082;13.744;2022-08-19T05:22:58;99580.38;;;24.35;63.66
74403;BME280;62837;51.082;13.744;2022-08-19T05:25:29;99590.20;;;24.25;63.53
74403;BME280;62837;51.082;13.744;2022-08-19T05:28:00;99598.80;;;24.22;63.81
74403;BME280;62837;51.082;13.744;2022-08-19T05:30:31;99598.67;;;24.23;63.67
74403;BME280;62837;51.082;13.744;2022-08-19T05:33:16;99595.49;;;24.24;63.68
74403;BME280;62837;51.082;13.744;2022-08-19T05:35:47;99602.56;;;24.24;63.68
74403;BME280;62837;51.082;13.744;2022-08-19T05:38:17;99611.02;;;24.19;63.63
74403;BME280;62837;51.082;13.744;2022-08-19T05:40:48;99607.81;;;24.16;63.92
74403;BME280;62837;51.082;13.744;2022-08-19T05:43:18;99617.36;;;24.18;63.84
74403;BME280;62837;51.082;13.744;2022-08-19T05:45:49;99626.83;;;24.22;63.76
74403;BME280;62837;51.082;13.744;2022-08-19T05:48:21;99633.95;;;24.25;63.83
74403;BME280;62837;51.082;13.744;2022-08-19T05:50:52;99639.87;;;24.27;63.73
74403;BME280;62837;51.082;13.744;2022-08-19T05:53:22;99645.38;;;24.22;63.84
74403;BME280;62837;51.082;13.744;2022-08-19T05:55:53;99657.02;;;24.19;63.77
74403;BME280;62837;51.082;13.744;2022-08-19T05:58:28;99657.34;;;24.19;63.87
74403;BME280;62837;51.082;13.744;2022-08-19T06:01:00;99656.29;;;24.18;63.84
74403;BME280;62837;51.082;13.744;2022-08-19T06:03:34;99654.58;;;24.15;63.83
74403;BME280;62837;51.082;13.744;2022-08-19T06:06:07;99660.10;;;24.14;63.79
74403;BME280;62837;51.082;13.744;2022-08-19T06:08:40;99664.52;;;24.15;63.88
74403;BME280;62837;51.082;13.744;2022-08-19T06:11:17;99668.60;;;24.04;64.18
74403;BME280;62837;51.082;13.744;2022-08-19T06:13:50;99675.84;;;23.91;64.21
74403;BME280;62837;51.082;13.744;2022-08-19T06:16:28;99691.03;;;23.88;64.44
74403;BME280;62837;51.082;13.744;2022-08-19T06:19:02;99698.95;;;23.87;64.47
74403;BME280;62837;51.082;13.744;2022-08-19T06:21:37;99707.30;;;23.81;64.48
74403;BME280;62837;51.082;13.744;2022-08-19T06:24:11;99712.60;;;23.78;64.66
74403;BME280;62837;51.082;13.744;2022-08-19T06:26:44;99719.89;;;23.74;64.82
74403;BME280;62837;51.082;13.744;2022-08-19T06:29:22;99723.42;;;23.68;64.72
74403;BME280;62837;51.082;13.744;2022-08-19T06:31:55;99722.19;;;23.64;64.96
74403;BME280;62837;51.082;13.744;2022-08-19T06:34:28;99721.68;;;23.63;64.97
74403;BME280;62837;51.082;13.744;2022-08-19T06:37:01;99731.23;;;23.69;64.84
74403;BME280;62837;51.082;13.744;2022-08-19T06:39:35;99735.02;;;23.74;64.93
74403;BME280;62837;51.082;13.744;2022-08-19T06:42:08;99732.58;;;23.75;65.08
74403;BME280;62837;51.082;13.744;2022-08-19T06:44:42;99728.60;;;23.70;65.31
74403;BME280;62837;51.082;13.744;2022-08-19T06:47:19;99728.01;;;23.53;65.61
74403;BME280;62837;51.082;13.744;2022-08-19T06:49:57;99733.91;;;23.38;66.12
74403;BME280;62837;51.082;13.744;2022-08-19T06:52:35;99738.39;;;23.23;66.76
74403;BME280;62837;51.082;13.744;2022-08-19T06:55:08;99739.48;;;23.13;67.19
74403;BME280;62837;51.082;13.744;2022-08-19T06:57:39;99740.04;;;23.01;67.91
74403;BME280;62837;51.082;13.744;2022-08-19T07:00:11;99751.86;;;22.97;68.12
74403;BME280;62837;51.082;13.744;2022-08-19T07:02:43;99759.79;;;22.92;68.62
74403;BME280;62837;51.082;13.744;2022-08-19T07:05:24;99764.00;;;22.90;68.78
74403;BME280;62837;51.082;13.744;2022-08-19T07:07:55;99764.89;;;22.91;68.72
74403;BME280;62837;51.082;13.744;2022-08-19T07:10:33;99768.98;;;22.96;68.98
74403;BME280;62837;51.082;13.744;2022-08-19T07:13:09;99760.08;;;22.93;69.27
74403;BME280;62837;51.082;13.744;2022-08-19T07:15:40;99753.92;;;22.88;69.35
74403;BME280;62837;51.082;13.744;2022-08-19T07:18:12;99745.31;;;22.87;69.57
74403;BME280;62837;51.082;13.744;2022-08-19T07:20:42;99745.16;;;22.87;69.63
74403;BME280;62837;51.082;13.744;2022-08-19T07:23:14;99746.35;;;22.89;69.83
74403;BME280;62837;51.082;13.744;2022-08-19T07:25:45;99746.83;;;22.92;69.93
74403;BME280;62837;51.082;13.744;2022-08-19T07:28:21;99756.28;;;22.89;70.29
74403;BME280;62837;51.082;13.744;2022-08-19T07:30:56;99764.23;;;22.84;70.33
74403;BME280;62837;51.082;13.744;2022-08-19T07:33:26;99772.11;;;22.80;70.65
74403;BME280;62837;51.082;13.744;2022-08-19T07:36:01;99775.27;;;22.73;70.93
74403;BME280;62837;51.082;13.744;2022-08-19T07:38:32;99774.59;;;22.67;71.13
74403;BME280;62837;51.082;13.744;2022-08-19T07:41:03;99779.07;;;22.64;71.15
74403;BME280;62837;51.082;13.744;2022-08-19T07:43:33;99783.00;;;22.63;71.57
74403;BME280;62837;51.082;13.744;2022-08-19T07:46:04;99786.53;;;22.59;71.42
74403;BME280;62837;51.082;13.744;2022-08-19T07:48:42;99789.02;;;22.55;71.90
74403;BME280;62837;51.082;13.744;2022-08-19T07:51:17;99785.52;;;22.50;72.18
74403;BME280;62837;51.082;13.744;2022-08-19T07:54:05;99781.61;;;22.49;72.36
74403;BME280;62837;51.082;13.744;2022-08-19T07:56:36;99773.81;;;22.48;72.39
74403;BME280;62837;51.082;13.744;2022-08-19T07:59:08;99772.52;;;22.47;72.44
74403;BME280;62837;51.082;13.744;2022-08-19T08:01:40;99776.84;;;22.47;72.81
74403;BME280;62837;51.082;13.744;2022-08-19T08:04:11;99775.63;;;22.44;72.84
74403;BME280;62837;51.082;13.744;2022-08-19T08:06:59;99776.98;;;22.46;72.72
74403;BME280;62837;51.082;13.744;2022-08-19T08:09:47;99782.59;;;22.49;72.61
74403;BME280;62837;51.082;13.744;2022-08-19T08:12:21;99793.09;;;22.52;72.74
74403;BME280;62837;51.082;13.744;2022-08-19T08:15:09;99793.20;;;22.50;72.76
74403;BME280;62837;51.082;13.744;2022-08-19T08:17:41;99792.45;;;22.49;72.92
74403;BME280;62837;51.082;13.744;2022-08-19T08:20:20;99796.52;;;22.49;72.93
74403;BME280;62837;51.082;13.744;2022-08-19T08:22:51;99795.48;;;22.47;73.11
74403;BME280;62837;51.082;13.744;2022-08-19T08:25:39;99799.30;;;22.43;73.45
74403;BME280;62837;51.082;13.744;2022-08-19T08:28:11;99797.46;;;22.38;73.24
74403;BME280;62837;51.082;13.744;2022-08-19T08:30:47;99804.41;;;22.38;73.31
74403;BME280;62837;51.082;13.744;2022-08-19T08:33:21;99803.39;;;22.39;73.28
74403;BME280;62837;51.082;13.744;2022-08-19T08:36:03;99807.59;;;22.38;73.33
74403;BME280;62837;51.082;13.744;2022-08-19T08:38:35;99809.39;;;22.41;73.25
74403;BME280;62837;51.082;13.744;2022-08-19T08:41:13;99808.52;;;22.44;73.35
74403;BME280;62837;51.082;13.744;2022-08-19T08:43:52;99812.92;;;22.51;73.20
74403;BME280;62837;51.082;13.744;2022-08-19T08:46:28;99818.88;;;22.57;73.22
74403;BME280;62837;51.082;13.744;2022-08-19T08:49:04;99829.88;;;22.66;73.04
74403;BME280;62837;51.082;13.744;2022-08-19T08:51:41;99829.91;;;22.71;72.71
74403;BME280;62837;51.082;13.744;2022-08-19T08:54:19;99824.23;;;22.79;72.52
74403;BME280;62837;51.082;13.744;2022-08-19T08:56:53;99824.05;;;22.84;72.36
74403;BME280;62837;51.082;13.744;2022-08-19T08:59:28;99822.16;;;22.85;72.39
74403;BME280;62837;51.082;13.744;2022-08-19T09:02:01;99819.77;;;22.91;72.30
74403;BME280;62837;51.082;13.744;2022-08-19T09:04:33;99820.66;;;22.99;72.12
74403;BME280;62837;51.082;13.744;2022-08-19T09:07:16;99823.70;;;23.07;71.83
74403;BME280;62837;51.082;13.744;2022-08-19T09:10:17;99827.64;;;23.13;71.78
74403;BME280;62837;51.082;13.744;2022-08-19T09:13:02;99832.83;;;23.15;71.55
74403;BME280;62837;51.082;13.744;2022-08-19T09:15:40;99824.10;;;23.18;71.26
74403;BME280;62837;51.082;13.744;2022-08-19T09:18:14;99826.69;;;23.30;71.12
74403;BME280;62837;51.082;13.744;2022-08-19T09:20:48;99826.30;;;23.42;70.61
74403;BME280;62837;51.082;13.744;2022-08-19T09:23:19;99827.98;;;23.49;70.44
74403;BME280;62837;51.082;13.744;2022-08-19T09:25:55;99821.58;;;23.52;70.11
74403;BME280;62837;51.082;13.744;2022-08-19T09:28:27;99814.57;;;23.60;70.06
74403;BME280;62837;51.082;13.744;2022-08-19T09:31:00;99811.19;;;23.69;69.69
74403;BME280;62837;51.082;13.744;2022-08-19T09:33:31;99807.95;;;23.74;69.41
74403;BME280;62837;51.082;13.744;2022-08-19T09:36:09;99799.12;;;23.80;69.21
74403;BME280;62837;51.082;13.744;2022-08-19T09:38:49;99792.68;;;23.82;69.13
74403;BME280;62837;51.082;13.744;2022-08-19T09:41:23;99784.55;;;23.81;69.16
74403;BME280;62837;51.082;13.744;2022-08-19T09:43:58;99788.41;;;23.78;68.95
74403;BME280;62837;51.082;13.744;2022-08-19T09:46:30;99785.09;;;23.77;69.00
74403;BME280;62837;51.082;13.744;2022-08-19T09:49:01;99785.30;;;23.82;68.94
74403;BME280;62837;51.082;13.744;2022-08-19T09:51:35;99781.30;;;23.88;68.87
74403;BME280;62837;51.082;13.744;2022-08-19T09:54:08;99780.34;;;23.95;68.61
74403;BME280;62837;51.082;13.744;2022-08-19T09:56:39;99786.84;;;24.02;68.39
74403;BME280;62837;51.082;13.744;2022-08-19T09:59:10;99790.95;;;24.12;68.13
74403;BME280;62837;51.082;13.744;2022-08-19T10:01:42;99789.35;;;24.21;67.74
74403;BME280;62837;51.082;13.744;2022-08-19T10:04:14;99801.02;;;24.26;67.40
74403;BME280;62837;51.082;13.744;2022-08-19T10:06:51;99808.26;;;24.26;67.26
74403;BME280;62837;51.082;13.744;2022-08-19T10:09:26;99810.96;;;24.22;67.22
74403;BME280;62837;51.082;13.744;2022-08-19T10:12:03;99808.02;;;24.14;67.63
74403;BME280;62837;51.082;13.744;2022-08-19T10:14:39;99801.17;;;24.07;67.57
74403;BME280;62837;51.082;13.744;2022-08-19T10:17:10;99799.04;;;24.08;67.50
74403;BME280;62837;51.082;13.744;2022-08-19T10:19:46;99798.57;;;24.18;67.42
74403;BME280;62837;51.082;13.744;2022-08-19T10:22:22;99803.66;;;24.29;67.15
74403;BME280;62837;51.082;13.744;2022-08-19T10:24:54;99800.75;;;24.37;66.60
74403;BME280;62837;51.082;13.744;2022-08-19T10:27:25;99810.38;;;24.41;66.27
74403;BME280;62837;51.082;13.744;2022-08-19T10:30:00;99816.72;;;24.40;66.15
74403;BME280;62837;51.082;13.744;2022-08-19T10:32:31;99818.73;;;24.40;66.12
74403;BME280;62837;51.082;13.744;2022-08-19T10:35:04;99824.09;;;24.39;66.10
74403;BME280;62837;51.082;13.744;2022-08-19T10:37:37;99831.86;;;24.35;66.15
74403;BME280;62837;51.082;13.744;2022-08-19T10:40:25;99832.52;;;24.33;66.16
74403;BME280;62837;51.082;13.744;2022-08-19T10:42:56;99827.28;;;24.39;65.89
74403;BME280;62837;51.082;13.744;2022-08-19T10:45:27;99826.56;;;24.50;65.71
74403;BME280;62837;51.082;13.744;2022-08-19T10:47:58;99825.60;;;24.63;65.51
74403;BME280;62837;51.082;13.744;2022-08-19T10:50:30;99825.23;;;24.82;65.02
74403;BME280;62837;51.082;13.744;2022-08-19T10:53:19;99823.15;;;25.07;64.94
74403;BME280;62837;51.082;13.744;2022-08-19T10:55:54;99830.52;;;25.29;64.30
74403;BME280;62837;51.082;13.744;2022-08-19T10:58:43;99838.02;;;25.50;63.70
74403;BME280;62837;51.082;13.744;2022-08-19T11:01:13;99844.88;;;25.66;63.20
74403;BME280;62837;51.082;13.744;2022-08-19T11:03:44;99843.16;;;25.74;62.80
74403;BME280;62837;51.082;13.744;2022-08-19T11:06:15;99840.95;;;25.75;62.39
74403;BME280;62837;51.082;13.744;2022-08-19T11:08:47;99845.40;;;25.73;62.42
74403;BME280;62837;51.082;13.744;2022-08-19T11:11:17;99847.52;;;25.65;62.05
74403;BME280;62837;51.082;13.744;2022-08-19T11:13:49;99851.48;;;25.55;62.73
74403;BME280;62837;51.082;13.744;2022-08-19T11:16:22;99851.33;;;25.48;62.59
74403;BME280;62837;51.082;13.744;2022-08-19T11:18:56;99851.91;;;25.37;62.79
74403;BME280;62837;51.082;13.744;2022-08-19T11:21:30;99856.48;;;25.25;62.77
74403;BME280;62837;51.082;13.744;2022-08-19T11:24:03;99861.70;;;25.16;62.81
74403;BME280;62837;51.082;13.744;2022-08-19T11:26:36;99865.67;;;25.11;62.76
74403;BME280;62837;51.082;13.744;2022-08-19T11:29:09;99867.19;;;25.07;63.03
74403;BME280;62837;51.082;13.744;2022-08-19T11:31:45;99869.48;;;25.02;63.05
74403;BME280;62837;51.082;13.744;2022-08-19T11:34:19;99868.67;;;24.97;62.96
74403;BME280;62837;51.082;13.744;2022-08-19T11:36:51;99867.23;;;24.94;63.03
74403;BME280;62837;51.082;13.744;2022-08-19T11:39:24;99867.91;;;24.93;63.32
74403;BME280;62837;51.082;13.744;2022-08-19T11:41:55;99873.69;;;24.96;63.51
74403;BME280;62837;51.082;13.744;2022-08-19T11:44:26;99873.65;;;25.01;63.33
74403;BME280;62837;51.082;13.744;2022-08-19T11:46:57;99868.90;;;25.04;63.21
74403;BME280;62837;51.082;13.744;2022-08-19T11:49:37;99863.01;;;25.07;63.65
74403;BME280;62837;51.082;13.744;2022-08-19T11:52:08;99856.55;;;25.16;63.38
74403;BME280;62837;51.082;13.744;2022-08-19T11:54:38;99854.38;;;25.27;63.21
74403;BME280;62837;51.082;13.744;2022-08-19T11:57:09;99854.11;;;25.31;62.80
74403;BME280;62837;51.082;13.744;2022-08-19T11:59:40;99864.50;;;25.23;62.66
74403;BME280;62837;51.082;13.744;2022-08-19T12:02:11;99864.63;;;25.15;62.36
74403;BME280;62837;51.082;13.744;2022-08-19T12:04:44;99869.63;;;25.04;62.49
74403;BME280;62837;51.082;13.744;2022-08-19T12:07:15;99875.33;;;24.90;62.94
74403;BME280;62837;51.082;13.744;2022-08-19T12:09:46;99877.11;;;24.71;62.98
74403;BME280;62837;51.082;13.744;2022-08-19T12:12:17;99878.23;;;24.65;63.51
74403;BME280;62837;51.082;13.744;2022-08-19T12:14:48;99876.45;;;24.57;63.74
74403;BME280;62837;51.082;13.744;2022-08-19T12:17:26;99882.31;;;24.50;63.88
74403;BME280;62837;51.082;13.744;2022-08-19T12:19:57;99885.14;;;24.44;64.18
74403;BME280;62837;51.082;13.744;2022-08-19T12:22:28;99892.01;;;24.39;64.07
74403;BME280;62837;51.082;13.744;2022-08-19T12:24:59;99895.45;;;24.32;64.47
74403;BME280;62837;51.082;13.744;2022-08-19T12:27:30;99900.36;;;24.29;64.36
74403;BME280;62837;51.082;13.744;2022-08-19T12:30:13;99903.20;;;24.31;64.43
74403;BME280;62837;51.082;13.744;2022-08-19T12:32:44;99896.21;;;24.40;64.48
74403;BME280;62837;51.082;13.744;2022-08-19T12:35:14;99895.05;;;24.58;64.31
74403;BME280;62837;51.082;13.744;2022-08-19T12:37:45;99898.41;;;24.68;63.94
74403;BME280;62837;51.082;13.744;2022-08-19T12:40:25;99898.96;;;24.71;63.56
74403;BME280;62837;51.082;13.744;2022-08-19T12:42:58;99892.91;;;24.73;63.34
74403;BME280;62837;51.082;13.744;2022-08-19T12:45:29;99895.63;;;24.76;63.42
74403;BME280;62837;51.082;13.744;2022-08-19T12:48:01;99900.65;;;24.74;63.49
74403;BME280;62837;51.082;13.744;2022-08-19T12:50:52;99901.98;;;24.66;63.35
74403;BME280;62837;51.082;13.744;2022-08-19T12:53:24;99907.02;;;24.58;63.29
74403;BME280;62837;51.082;13.744;2022-08-19T12:55:57;99912.20;;;24.54;63.56
74403;BME280;62837;51.082;13.744;2022-08-19T12:58:29;99905.66;;;24.49;63.34
74403;BME280;62837;51.082;13.744;2022-08-19T13:01:10;99905.06;;;24.44;63.66
74403;BME280;62837;51.082;13.744;2022-08-19T13:03:41;99898.23;;;24.41;63.65
74403;BME280;62837;51.082;13.744;2022-08-19T13:06:13;99893.54;;;24.39;63.79
74403;BME280;62837;51.082;13.744;2022-08-19T13:08:48;99895.48;;;24.43;63.68
74403;BME280;62837;51.082;13.744;2022-08-19T13:11:20;99894.54;;;24.51;63.41
74403;BME280;62837;51.082;13.744;2022-08-19T13:13:54;99893.77;;;24.59;63.18
74403;BME280;62837;51.082;13.744;2022-08-19T13:16:25;99896.16;;;24.62;63.15
74403;BME280;62837;51.082;13.744;2022-08-19T13:18:57;99889.25;;;24.61;63.18
74403;BME280;62837;51.082;13.744;2022-08-19T13:21:27;99890.54;;;24.58;63.08
74403;BME280;62837;51.082;13.744;2022-08-19T13:23:59;99893.38;;;24.50;63.54